createdAt,value
2023-04-06T00:00:13.386Z,98695.16
2023-04-06T00:04:22.400Z,98693.94
2023-04-06T00:08:29.822Z,98695.94
2023-04-06T00:12:34.809Z,98695.28
2023-04-06T00:16:41.865Z,98692.25
2023-04-06T00:20:44.608Z,98688.56
2023-04-06T00:24:52.133Z,98691.56
2023-04-06T00:29:00.730Z,98694.53
2023-04-06T00:33:08.273Z,98698.34
2023-04-06T00:37:16.889Z,98693.63
2023-04-06T00:41:25.083Z,98701.97
2023-04-06T00:45:34.920Z,98699.84
2023-04-06T00:49:45.694Z,98699.75
2023-04-06T00:53:52.742Z,98693.56
2023-04-06T00:58:08.000Z,98696.88
2023-04-06T01:02:26.320Z,98698.13
2023-04-06T01:06:42.189Z,98698.38
2023-04-06T01:11:21.797Z,98700.31
2023-04-06T01:15:44.513Z,98690.09
2023-04-06T01:19:57.049Z,98689.56
2023-04-06T01:29:09.983Z,98694.09
2023-04-06T01:33:47.123Z,98692.19
2023-04-06T01:37:56.063Z,98701.25
2023-04-06T01:42:13.887Z,98695.81
2023-04-06T01:46:23.602Z,98699.34
2023-04-06T01:50:35.150Z,98705.94
2023-04-06T01:54:42.960Z,98710.41
2023-04-06T01:58:58.980Z,98717.25
2023-04-06T02:03:09.242Z,98706.53
2023-04-06T02:07:23.145Z,98708.16
2023-04-06T02:11:39.737Z,98709.81
2023-04-06T02:15:52.859Z,98710.22
2023-04-06T02:20:05.808Z,98710.03
2023-04-06T02:24:14.051Z,98714.03
2023-04-06T02:28:22.682Z,98700.66
2023-04-06T02:32:29.093Z,98693.13
2023-04-06T02:36:37.908Z,98699.59
2023-04-06T02:41:08.509Z,98689.44
2023-04-06T02:45:22.448Z,98682.53
2023-04-06T02:49:35.420Z,98684.91
2023-04-06T02:53:47.413Z,98678.06
2023-04-06T02:58:12.238Z,98678.31
2023-04-06T03:02:44.497Z,98680.69
2023-04-06T03:07:07.750Z,98685.03
2023-04-06T03:11:44.047Z,98687.47
2023-04-06T03:15:49.843Z,98677.47
2023-04-06T03:20:00.116Z,98671.13
2023-04-06T03:24:15.394Z,98674.97
2023-04-06T03:29:06.171Z,98679.00
2023-04-06T03:33:51.968Z,98679.31
2023-04-06T03:47:54.662Z,98696.41
2023-04-06T03:52:00.123Z,98696.41
2023-04-06T03:56:17.213Z,98702.19
2023-04-06T04:00:26.630Z,98697.41
2023-04-06T04:04:39.451Z,98701.66
2023-04-06T04:08:52.164Z,98700.38
2023-04-06T04:12:57.862Z,98696.13
2023-04-06T04:17:02.941Z,98697.84
2023-04-06T04:21:11.180Z,98699.28
2023-04-06T04:25:19.226Z,98696.38
2023-04-06T04:29:28.024Z,98692.66
2023-04-06T04:33:34.568Z,98698.22
2023-04-06T04:37:46.345Z,98706.22
2023-04-06T04:41:59.419Z,98705.34
2023-04-06T04:46:43.585Z,98702.63
2023-04-06T04:50:51.360Z,98707.38
2023-04-06T04:55:04.280Z,98716.53
2023-04-06T04:59:14.836Z,98734.44
2023-04-06T05:03:34.927Z,98725.59
2023-04-06T05:07:43.319Z,98729.59
2023-04-06T05:11:58.324Z,98727.28
2023-04-06T05:16:02.006Z,98736.34
2023-04-06T05:20:08.564Z,98743.69
2023-04-06T05:24:19.219Z,98748.31
2023-04-06T05:28:23.703Z,98747.31
2023-04-06T05:32:26.572Z,98752.28
2023-04-06T05:36:29.649Z,98755.00
2023-04-06T05:40:31.973Z,98748.44
2023-04-06T05:44:34.821Z,98751.56
2023-04-06T05:48:43.002Z,98747.19
2023-04-06T05:52:48.215Z,98743.72
2023-04-06T05:56:53.496Z,98755.28
2023-04-06T06:01:00.435Z,98759.41
2023-04-06T06:05:11.709Z,98756.84
2023-04-06T06:09:16.395Z,98757.91
2023-04-06T06:13:28.264Z,98760.00
2023-04-06T06:17:32.120Z,98771.13
2023-04-06T06:21:34.509Z,98770.72
2023-04-06T06:25:37.895Z,98772.75
2023-04-06T06:29:41.189Z,98766.66
2023-04-06T06:33:43.665Z,98771.47
2023-04-06T06:37:46.105Z,98768.59
2023-04-06T06:41:51.617Z,98766.50
2023-04-06T06:45:59.953Z,98761.75
2023-04-06T06:50:03.904Z,98750.31
2023-04-06T06:54:06.172Z,98755.25
2023-04-06T06:58:08.311Z,98748.44
2023-04-06T07:02:10.571Z,98750.38
2023-04-06T07:06:12.739Z,98758.78
2023-04-06T07:10:16.074Z,98749.69
2023-04-06T07:14:18.248Z,98759.03
2023-04-06T07:18:22.471Z,98751.91
2023-04-06T07:22:25.001Z,98748.03
2023-04-06T07:26:28.833Z,98749.56
2023-04-06T07:30:32.168Z,98745.66
2023-04-06T07:34:35.494Z,98748.84
2023-04-06T07:38:37.790Z,98740.38
2023-04-06T07:42:40.086Z,98747.47
2023-04-06T07:46:43.652Z,98745.75
2023-04-06T07:50:45.919Z,98747.94
2023-04-06T07:54:50.463Z,98752.00
2023-04-06T07:58:54.373Z,98749.44
2023-04-06T08:02:56.939Z,98741.38
2023-04-06T08:06:59.169Z,98732.38
2023-04-06T08:11:02.293Z,98728.69
2023-04-06T08:15:05.670Z,98730.16
2023-04-06T08:19:10.330Z,98734.88
2023-04-06T08:23:12.518Z,98735.69
2023-04-06T08:27:15.786Z,98737.44
2023-04-06T08:31:18.252Z,98730.28
2023-04-06T08:35:20.802Z,98736.66
2023-04-06T08:39:26.539Z,98750.53
2023-04-06T08:43:30.444Z,98733.88
2023-04-06T08:47:32.729Z,98731.38
2023-04-06T08:51:38.531Z,98718.84
2023-04-06T08:55:41.443Z,98726.97
2023-04-06T08:59:44.157Z,98724.16
2023-04-06T09:03:49.666Z,98724.44
2023-04-06T09:07:52.772Z,98731.53
2023-04-06T09:11:55.203Z,98721.16
2023-04-06T09:16:04.192Z,98731.66
2023-04-06T09:20:06.872Z,98714.38
2023-04-06T09:24:10.647Z,98727.41
2023-04-06T09:28:13.381Z,98713.19
2023-04-06T09:32:17.962Z,98716.94
2023-04-06T09:36:21.047Z,98711.19
2023-04-06T09:40:23.763Z,98705.91
2023-04-06T09:44:25.867Z,98706.69
2023-04-06T09:48:32.112Z,98703.38
2023-04-06T09:52:43.574Z,98701.59
2023-04-06T09:57:03.324Z,98694.69
2023-04-06T10:01:16.711Z,98694.41
2023-04-06T10:05:34.124Z,98693.91
2023-04-06T10:09:38.204Z,98678.47
2023-04-06T10:13:40.398Z,98685.69
2023-04-06T10:17:42.774Z,98685.09
2023-04-06T10:21:48.709Z,98671.25
2023-04-06T10:25:56.827Z,98662.47
2023-04-06T10:30:06.985Z,98659.00
2023-04-06T10:38:13.633Z,98661.31
2023-04-06T10:42:15.615Z,98663.47
2023-04-06T10:46:27.376Z,98661.59
2023-04-06T10:50:30.815Z,98656.53
2023-04-06T10:54:33.861Z,98649.09
2023-04-06T10:58:36.275Z,98649.09
2023-04-06T11:02:41.920Z,98649.81
2023-04-06T11:06:49.757Z,98640.59
2023-04-06T11:10:52.081Z,98640.75
2023-04-06T11:14:57.020Z,98632.84
2023-04-06T11:19:01.351Z,98631.91
2023-04-06T11:23:04.835Z,98625.81
2023-04-06T11:27:07.420Z,98622.66
2023-04-06T11:31:12.144Z,98612.72
2023-04-06T11:35:24.945Z,98617.91
2023-04-06T11:39:28.677Z,98623.38
2023-04-06T11:43:31.818Z,98617.88
2023-04-06T11:47:36.402Z,98609.78
2023-04-06T11:51:38.830Z,98604.94
2023-04-06T11:55:41.355Z,98602.75
2023-04-06T11:59:44.148Z,98605.91
2023-04-06T12:03:47.404Z,98614.25
2023-04-06T12:07:49.626Z,98590.78
2023-04-06T12:11:51.996Z,98591.91
2023-04-06T12:15:54.144Z,98590.00
2023-04-06T12:20:01.777Z,98578.91
2023-04-06T12:24:07.793Z,98582.00
2023-04-06T12:28:09.994Z,98570.88
2023-04-06T12:32:12.825Z,98572.56
2023-04-06T12:36:21.201Z,98564.78
2023-04-06T12:40:23.546Z,98563.25
2023-04-06T12:44:26.925Z,98563.19
2023-04-06T12:48:29.275Z,98559.13
2023-04-06T12:52:32.969Z,98559.22
2023-04-06T12:56:35.092Z,98556.38
2023-04-06T13:00:38.027Z,98547.66
2023-04-06T13:04:41.737Z,98543.75
2023-04-06T13:08:44.198Z,98545.72
2023-04-06T13:12:46.743Z,98550.31
2023-04-06T13:16:49.086Z,98556.59
2023-04-06T13:20:51.552Z,98546.25
2023-04-06T13:24:53.697Z,98551.50
2023-04-06T13:28:57.815Z,98545.13
2023-04-06T13:33:00.032Z,98542.50
2023-04-06T13:37:02.255Z,98545.78
2023-04-06T13:41:04.420Z,98542.22
2023-04-06T13:45:09.514Z,98535.97
2023-04-06T13:49:12.084Z,98538.78
2023-04-06T13:53:15.731Z,98533.88
2023-04-06T13:57:18.689Z,98527.66
2023-04-06T14:01:21.039Z,98529.03
2023-04-06T14:05:24.652Z,98514.19
2023-04-06T14:09:26.980Z,98508.34
2023-04-06T14:13:29.146Z,98509.59
2023-04-06T14:17:31.593Z,98501.44
2023-04-06T14:21:33.995Z,98499.38
2023-04-06T14:25:36.374Z,98489.00
2023-04-06T14:29:39.138Z,98481.41
2023-04-06T14:33:43.149Z,98489.41
2023-04-06T14:37:46.028Z,98488.31
2023-04-06T14:41:49.851Z,98486.81
2023-04-06T14:45:53.637Z,98485.25
2023-04-06T14:49:56.023Z,98478.41
2023-04-06T14:53:58.391Z,98480.69
2023-04-06T14:58:00.940Z,98480.81
2023-04-06T15:02:04.308Z,98475.13
2023-04-06T15:06:08.094Z,98480.28
2023-04-06T15:10:12.361Z,98485.06
2023-04-06T15:14:14.634Z,98485.16
2023-04-06T15:18:16.883Z,98484.66
2023-04-06T15:22:19.120Z,98479.72
2023-04-06T15:26:22.056Z,98477.72
2023-04-06T15:30:25.297Z,98462.28
2023-04-06T15:34:31.246Z,98474.88
2023-04-06T15:38:34.068Z,98471.94
2023-04-06T15:42:36.162Z,98469.22
2023-04-06T15:46:38.718Z,98476.41
2023-04-06T15:50:41.010Z,98474.31
2023-04-06T15:54:43.090Z,98473.81
2023-04-06T15:58:45.758Z,98477.09
2023-04-06T16:02:48.005Z,98465.25
2023-04-06T16:06:50.911Z,98468.34
2023-04-06T16:10:53.012Z,98470.72
2023-04-06T16:14:55.382Z,98475.44
2023-04-06T16:18:57.419Z,98469.34
2023-04-06T16:22:59.504Z,98469.00
2023-04-06T16:27:01.837Z,98460.88
2023-04-06T16:31:03.978Z,98463.97
2023-04-06T16:35:06.825Z,98462.47
2023-04-06T16:39:10.108Z,98469.56
2023-04-06T16:43:12.594Z,98461.91
2023-04-06T16:47:18.273Z,98470.97
2023-04-06T16:51:20.909Z,98472.03
2023-04-06T16:55:23.013Z,98469.25
2023-04-06T16:59:25.031Z,98462.50
2023-04-06T17:03:30.352Z,98467.22
2023-04-06T17:07:33.983Z,98475.03
2023-04-06T17:11:46.128Z,98475.34
2023-04-06T17:15:49.133Z,98474.31
2023-04-06T17:19:51.257Z,98470.00
2023-04-06T17:23:53.339Z,98474.72
2023-04-06T17:27:55.370Z,98478.84
2023-04-06T17:31:57.508Z,98481.09
2023-04-06T17:35:59.735Z,98483.84
2023-04-06T17:40:02.008Z,98486.50
2023-04-06T17:44:04.133Z,98481.84
2023-04-06T17:48:06.796Z,98486.94
2023-04-06T17:52:09.374Z,98489.38
2023-04-06T17:56:11.517Z,98496.59
2023-04-06T18:00:16.626Z,98501.13
2023-04-06T18:04:18.763Z,98502.44
2023-04-06T18:08:22.559Z,98519.69
2023-04-06T18:12:24.684Z,98515.66
2023-04-06T18:16:28.707Z,98520.97
2023-04-06T18:20:31.018Z,98514.03
2023-04-06T18:24:42.346Z,98531.47
2023-04-06T18:28:45.540Z,98542.00
2023-04-06T18:32:51.380Z,98536.75
2023-04-06T18:36:53.697Z,98543.00
2023-04-06T18:40:55.944Z,98556.94
2023-04-06T18:44:58.355Z,98557.22
2023-04-06T18:49:00.601Z,98561.56
2023-04-06T18:53:03.188Z,98568.09
2023-04-06T18:57:05.485Z,98580.09
2023-04-06T19:01:07.514Z,98585.06
2023-04-06T19:05:12.179Z,98596.00
2023-04-06T19:09:14.397Z,98592.31
2023-04-06T19:13:16.601Z,98593.16
2023-04-06T19:17:19.698Z,98606.75
2023-04-06T19:21:24.810Z,98606.50
2023-04-06T19:25:26.924Z,98619.47
2023-04-06T19:29:29.120Z,98628.88
2023-04-06T19:33:31.276Z,98632.97
2023-04-06T19:37:38.225Z,98628.28
2023-04-06T19:41:40.659Z,98649.19
2023-04-06T19:45:42.735Z,98645.09
2023-04-06T19:49:45.074Z,98642.38
2023-04-06T19:53:47.625Z,98650.16
2023-04-06T19:57:49.724Z,98661.38
2023-04-06T20:01:52.358Z,98659.66
2023-04-06T20:05:54.595Z,98668.00
2023-04-06T20:09:56.742Z,98664.09
2023-04-06T20:13:59.054Z,98669.19
2023-04-06T20:18:01.423Z,98661.25
2023-04-06T20:22:03.812Z,98672.53
2023-04-06T20:26:09.805Z,98664.47
2023-04-06T20:30:15.425Z,98669.69
2023-04-06T20:34:17.779Z,98672.06
2023-04-06T20:38:31.930Z,98674.44
2023-04-06T20:42:34.896Z,98673.03
2023-04-06T20:46:37.190Z,98676.31
2023-04-06T20:50:39.547Z,98676.50
2023-04-06T20:54:41.747Z,98693.81
2023-04-06T20:58:43.859Z,98687.34
2023-04-06T21:02:46.605Z,98690.44
2023-04-06T21:06:49.810Z,98693.19
2023-04-06T21:10:51.900Z,98690.16
2023-04-06T21:14:54.163Z,98689.50
2023-04-06T21:18:56.280Z,98689.75
2023-04-06T21:22:58.513Z,98692.22
2023-04-06T21:27:00.697Z,98685.72
2023-04-06T21:31:08.107Z,98695.59
2023-04-06T21:35:10.958Z,98696.13
2023-04-06T21:39:13.244Z,98701.09
2023-04-06T21:43:15.669Z,98694.56
2023-04-06T21:47:17.872Z,98695.28
2023-04-06T21:51:21.585Z,98695.03
2023-04-06T21:55:23.782Z,98689.75
2023-04-06T21:59:25.917Z,98697.06
2023-04-06T22:03:28.508Z,98698.03
2023-04-06T22:07:30.966Z,98695.50
2023-04-06T22:11:33.099Z,98690.63
2023-04-06T22:15:35.814Z,98694.66
2023-04-06T22:19:37.964Z,98688.81
2023-04-06T22:23:42.641Z,98683.63
2023-04-06T22:27:44.891Z,98693.34
2023-04-06T22:31:47.432Z,98695.81
2023-04-06T22:35:49.903Z,98695.97
2023-04-06T22:39:52.161Z,98691.34
2023-04-06T22:43:54.276Z,98691.59
2023-04-06T22:47:56.395Z,98692.19
2023-04-06T22:51:58.706Z,98693.41
2023-04-06T22:56:00.846Z,98694.22
2023-04-06T23:00:06.036Z,98689.38
2023-04-06T23:04:14.918Z,98691.47
2023-04-06T23:08:19.515Z,98690.69
2023-04-06T23:12:21.901Z,98704.84
2023-04-06T23:16:24.050Z,98697.94
2023-04-06T23:20:26.396Z,98702.22
2023-04-06T23:24:28.571Z,98701.59
2023-04-06T23:28:31.480Z,98704.44
2023-04-06T23:32:33.711Z,98701.63
2023-04-06T23:36:36.064Z,98701.41
2023-04-06T23:40:38.863Z,98700.44
2023-04-06T23:44:40.992Z,98691.91
2023-04-06T23:48:43.532Z,98691.34
2023-04-06T23:52:45.949Z,98694.72
2023-04-06T23:56:48.031Z,98697.13
